Terminal Aerodrome Forecast
Issued by NWS Jackson, MS

Home | Current Version | Previous Version | Text Only | Print | Product List | Glossary On
Versions: 1 2 3 4 5 6 7 8 9 10 11 12 13 14
000
FTUS44 KMEG 250530
TAFTUP
TAF
KTUP 250530Z 2506/2606 15010G22KT P6SM BKN040
     FM251200 18015G25KT P6SM VCSH BKN040 BKN150
     FM251300 18020G30KT P6SM VCTS BKN025CB OVC050
      TEMPO 2513/2515 3SM TSRA
     FM251600 18018G28KT P6SM VCSH BKN035
      TEMPO 2518/2520 3SM TSRA BKN025CB
     FM260200 21006KT P6SM SCT040 BKN100=

USA.gov is the U.S. government's official web portal to all federal, state and local government web resources and services.